sensor_id;sensor_type;location;lat;lon;timestamp;P1;P2;P0
57289;PMS5003;43523;53.022;-1.178;2022-11-20T00:00:23;40;30;
57289;PMS5003;43523;53.022;-1.178;2022-11-20T00:01:25;40;34;
57289;PMS5003;43523;53.022;-1.178;2022-11-20T00:02:29;38;33;
57289;PMS5003;43523;53.022;-1.178;2022-11-20T00:03:31;42;37;
57289;PMS5003;43523;53.022;-1.178;2022-11-20T00:04:33;45;33;
57289;PMS5003;43523;53.022;-1.178;2022-11-20T00:05:40;35;34;
57289;PMS5003;43523;53.022;-1.178;2022-11-20T00:06:43;35;30;
57289;PMS5003;43523;53.022;-1.178;2022-11-20T00:07:46;38;29;
57289;PMS5003;43523;53.022;-1.178;2022-11-20T00:08:49;33;31;
57289;PMS5003;43523;53.022;-1.178;2022-11-20T00:09:52;40;34;
57289;PMS5003;43523;53.022;-1.178;2022-11-20T00:10:55;39;33;
57289;PMS5003;43523;53.022;-1.178;2022-11-20T00:11:57;40;33;
57289;PMS5003;43523;53.022;-1.178;2022-11-20T00:12:59;37;29;
57289;PMS5003;43523;53.022;-1.178;2022-11-20T00:14:06;45;33;
57289;PMS5003;43523;53.022;-1.178;2022-11-20T00:15:11;35;30;
57289;PMS5003;43523;53.022;-1.178;2022-11-20T00:16:15;39;31;
57289;PMS5003;43523;53.022;-1.178;2022-11-20T00:17:20;38;32;
57289;PMS5003;43523;53.022;-1.178;2022-11-20T00:18:22;34;29;
57289;PMS5003;43523;53.022;-1.178;2022-11-20T00:19:24;32;29;
57289;PMS5003;43523;53.022;-1.178;2022-11-20T00:20:26;36;36;
57289;PMS5003;43523;53.022;-1.178;2022-11-20T00:21:29;36;31;
57289;PMS5003;43523;53.022;-1.178;2022-11-20T00:22:32;43;35;
57289;PMS5003;43523;53.022;-1.178;2022-11-20T00:23:36;32;31;
57289;PMS5003;43523;53.022;-1.178;2022-11-20T00:24:39;42;32;
57289;PMS5003;43523;53.022;-1.178;2022-11-20T00:25:41;31;28;
57289;PMS5003;43523;53.022;-1.178;2022-11-20T00:26:44;39;30;
57289;PMS5003;43523;53.022;-1.178;2022-11-20T00:27:47;43;32;
57289;PMS5003;43523;53.022;-1.178;2022-11-20T00:28:50;33;26;
57289;PMS5003;43523;53.022;-1.178;2022-11-20T00:29:53;40;29;
57289;PMS5003;43523;53.022;-1.178;2022-11-20T00:31:00;37;29;
57289;PMS5003;43523;53.022;-1.178;2022-11-20T00:32:04;37;33;
57289;PMS5003;43523;53.022;-1.178;2022-11-20T00:33:06;35;31;
57289;PMS5003;43523;53.022;-1.178;2022-11-20T00:34:09;31;27;
57289;PMS5003;43523;53.022;-1.178;2022-11-20T00:35:11;33;30;
57289;PMS5003;43523;53.022;-1.178;2022-11-20T00:36:14;35;29;
57289;PMS5003;43523;53.022;-1.178;2022-11-20T00:37:18;41;28;
57289;PMS5003;43523;53.022;-1.178;2022-11-20T00:38:21;31;25;
57289;PMS5003;43523;53.022;-1.178;2022-11-20T00:39:23;34;31;
57289;PMS5003;43523;53.022;-1.178;2022-11-20T00:40:25;34;27;
57289;PMS5003;43523;53.022;-1.178;2022-11-20T00:41:28;33;30;
57289;PMS5003;43523;53.022;-1.178;2022-11-20T00:42:31;36;27;
57289;PMS5003;43523;53.022;-1.178;2022-11-20T00:43:34;36;28;
57289;PMS5003;43523;53.022;-1.178;2022-11-20T00:44:40;37;31;
57289;PMS5003;43523;53.022;-1.178;2022-11-20T00:45:42;34;26;
57289;PMS5003;43523;53.022;-1.178;2022-11-20T00:46:45;38;33;
57289;PMS5003;43523;53.022;-1.178;2022-11-20T00:47:47;35;31;
57289;PMS5003;43523;53.022;-1.178;2022-11-20T00:48:49;37;33;
57289;PMS5003;43523;53.022;-1.178;2022-11-20T00:49:51;33;26;
57289;PMS5003;43523;53.022;-1.178;2022-11-20T00:50:53;42;37;
57289;PMS5003;43523;53.022;-1.178;2022-11-20T00:51:56;41;30;
57289;PMS5003;43523;53.022;-1.178;2022-11-20T00:52:58;46;33;
57289;PMS5003;43523;53.022;-1.178;2022-11-20T00:54:00;38;31;
57289;PMS5003;43523;53.022;-1.178;2022-11-20T00:55:03;38;30;
57289;PMS5003;43523;53.022;-1.178;2022-11-20T00:56:07;42;35;
57289;PMS5003;43523;53.022;-1.178;2022-11-20T00:57:12;44;36;
57289;PMS5003;43523;53.022;-1.178;2022-11-20T00:58:15;34;27;
57289;PMS5003;43523;53.022;-1.178;2022-11-20T00:59:17;42;33;
57289;PMS5003;43523;53.022;-1.178;2022-11-20T01:00:20;38;33;
57289;PMS5003;43523;53.022;-1.178;2022-11-20T01:01:23;36;35;
57289;PMS5003;43523;53.022;-1.178;2022-11-20T01:02:27;36;34;
57289;PMS5003;43523;53.022;-1.178;2022-11-20T01:03:30;39;33;
57289;PMS5003;43523;53.022;-1.178;2022-11-20T01:04:33;36;33;
57289;PMS5003;43523;53.022;-1.178;2022-11-20T01:05:36;33;31;
57289;PMS5003;43523;53.022;-1.178;2022-11-20T01:06:38;41;34;
57289;PMS5003;43523;53.022;-1.178;2022-11-20T01:07:41;41;31;
57289;PMS5003;43523;53.022;-1.178;2022-11-20T01:08:44;38;30;
57289;PMS5003;43523;53.022;-1.178;2022-11-20T01:09:46;35;29;
57289;PMS5003;43523;53.022;-1.178;2022-11-20T01:10:48;38;32;
57289;PMS5003;43523;53.022;-1.178;2022-11-20T01:11:51;34;30;
57289;PMS5003;43523;53.022;-1.178;2022-11-20T01:12:54;37;31;
57289;PMS5003;43523;53.022;-1.178;2022-11-20T01:13:57;35;30;
57289;PMS5003;43523;53.022;-1.178;2022-11-20T01:15:01;31;27;
57289;PMS5003;43523;53.022;-1.178;2022-11-20T01:16:05;39;32;
57289;PMS5003;43523;53.022;-1.178;2022-11-20T01:17:08;46;33;
57289;PMS5003;43523;53.022;-1.178;2022-11-20T01:18:10;40;34;
57289;PMS5003;43523;53.022;-1.178;2022-11-20T01:19:13;34;28;
57289;PMS5003;43523;53.022;-1.178;2022-11-20T01:20:17;42;37;
57289;PMS5003;43523;53.022;-1.178;2022-11-20T01:21:20;29;28;
57289;PMS5003;43523;53.022;-1.178;2022-11-20T01:22:24;35;28;
57289;PMS5003;43523;53.022;-1.178;2022-11-20T01:23:26;33;31;
57289;PMS5003;43523;53.022;-1.178;2022-11-20T01:24:32;33;29;
57289;PMS5003;43523;53.022;-1.178;2022-11-20T01:25:36;35;29;
57289;PMS5003;43523;53.022;-1.178;2022-11-20T01:26:51;35;29;
57289;PMS5003;43523;53.022;-1.178;2022-11-20T01:27:58;38;30;
57289;PMS5003;43523;53.022;-1.178;2022-11-20T01:29:02;37;26;
57289;PMS5003;43523;53.022;-1.178;2022-11-20T01:30:05;38;32;
57289;PMS5003;43523;53.022;-1.178;2022-11-20T01:31:11;29;28;
57289;PMS5003;43523;53.022;-1.178;2022-11-20T01:32:15;44;33;
57289;PMS5003;43523;53.022;-1.178;2022-11-20T01:33:17;34;28;
57289;PMS5003;43523;53.022;-1.178;2022-11-20T01:34:20;44;27;
57289;PMS5003;43523;53.022;-1.178;2022-11-20T01:35:23;27;24;
57289;PMS5003;43523;53.022;-1.178;2022-11-20T01:36:26;32;28;
57289;PMS5003;43523;53.022;-1.178;2022-11-20T01:37:29;40;28;
57289;PMS5003;43523;53.022;-1.178;2022-11-20T01:38:32;34;28;
57289;PMS5003;43523;53.022;-1.178;2022-11-20T01:39:34;39;29;
57289;PMS5003;43523;53.022;-1.178;2022-11-20T01:40:37;35;28;
57289;PMS5003;43523;53.022;-1.178;2022-11-20T01:41:41;36;30;
57289;PMS5003;43523;53.022;-1.178;2022-11-20T01:42:44;31;29;
57289;PMS5003;43523;53.022;-1.178;2022-11-20T01:43:49;32;26;
57289;PMS5003;43523;53.022;-1.178;2022-11-20T01:44:53;43;33;
57289;PMS5003;43523;53.022;-1.178;2022-11-20T01:45:59;33;26;
57289;PMS5003;43523;53.022;-1.178;2022-11-20T01:47:05;34;30;
57289;PMS5003;43523;53.022;-1.178;2022-11-20T01:48:10;30;24;
57289;PMS5003;43523;53.022;-1.178;2022-11-20T01:49:15;36;30;
57289;PMS5003;43523;53.022;-1.178;2022-11-20T01:50:21;29;25;
57289;PMS5003;43523;53.022;-1.178;2022-11-20T01:51:27;37;28;
57289;PMS5003;43523;53.022;-1.178;2022-11-20T01:52:36;33;25;
57289;PMS5003;43523;53.022;-1.178;2022-11-20T01:53:42;30;23;
57289;PMS5003;43523;53.022;-1.178;2022-11-20T01:54:46;27;26;
57289;PMS5003;43523;53.022;-1.178;2022-11-20T01:55:56;34;26;
57289;PMS5003;43523;53.022;-1.178;2022-11-20T01:57:01;36;31;
57289;PMS5003;43523;53.022;-1.178;2022-11-20T01:58:05;31;26;
57289;PMS5003;43523;53.022;-1.178;2022-11-20T01:59:08;31;29;
57289;PMS5003;43523;53.022;-1.178;2022-11-20T02:00:16;33;26;
57289;PMS5003;43523;53.022;-1.178;2022-11-20T02:01:20;28;22;
57289;PMS5003;43523;53.022;-1.178;2022-11-20T02:02:22;27;23;
57289;PMS5003;43523;53.022;-1.178;2022-11-20T02:03:24;35;28;
57289;PMS5003;43523;53.022;-1.178;2022-11-20T02:04:27;29;26;
57289;PMS5003;43523;53.022;-1.178;2022-11-20T02:05:31;25;23;
57289;PMS5003;43523;53.022;-1.178;2022-11-20T02:06:39;29;20;
57289;PMS5003;43523;53.022;-1.178;2022-11-20T02:07:46;29;24;
57289;PMS5003;43523;53.022;-1.178;2022-11-20T02:08:50;33;23;
57289;PMS5003;43523;53.022;-1.178;2022-11-20T02:09:53;36;32;
57289;PMS5003;43523;53.022;-1.178;2022-11-20T02:10:56;30;24;
57289;PMS5003;43523;53.022;-1.178;2022-11-20T02:11:58;31;28;
57289;PMS5003;43523;53.022;-1.178;2022-11-20T02:13:02;37;31;
57289;PMS5003;43523;53.022;-1.178;2022-11-20T02:14:05;27;23;
57289;PMS5003;43523;53.022;-1.178;2022-11-20T02:15:09;27;23;
57289;PMS5003;43523;53.022;-1.178;2022-11-20T02:16:13;26;21;
57289;PMS5003;43523;53.022;-1.178;2022-11-20T02:17:18;34;31;
57289;PMS5003;43523;53.022;-1.178;2022-11-20T02:18:20;29;27;
57289;PMS5003;43523;53.022;-1.178;2022-11-20T02:19:26;34;27;
57289;PMS5003;43523;53.022;-1.178;2022-11-20T02:20:31;30;25;
57289;PMS5003;43523;53.022;-1.178;2022-11-20T02:21:35;32;22;
57289;PMS5003;43523;53.022;-1.178;2022-11-20T02:22:43;31;22;
57289;PMS5003;43523;53.022;-1.178;2022-11-20T02:23:58;35;27;
57289;PMS5003;43523;53.022;-1.178;2022-11-20T02:25:02;35;29;
57289;PMS5003;43523;53.022;-1.178;2022-11-20T02:26:09;32;25;
57289;PMS5003;43523;53.022;-1.178;2022-11-20T02:27:16;37;25;
57289;PMS5003;43523;53.022;-1.178;2022-11-20T02:28:19;29;25;
57289;PMS5003;43523;53.022;-1.178;2022-11-20T02:29:23;36;31;
57289;PMS5003;43523;53.022;-1.178;2022-11-20T02:30:28;26;22;
57289;PMS5003;43523;53.022;-1.178;2022-11-20T02:31:35;31;29;
57289;PMS5003;43523;53.022;-1.178;2022-11-20T02:32:40;25;21;
57289;PMS5003;43523;53.022;-1.178;2022-11-20T02:33:43;30;25;
57289;PMS5003;43523;53.022;-1.178;2022-11-20T02:34:45;26;23;
57289;PMS5003;43523;53.022;-1.178;2022-11-20T02:35:48;32;26;
57289;PMS5003;43523;53.022;-1.178;2022-11-20T02:36:50;21;20;
57289;PMS5003;43523;53.022;-1.178;2022-11-20T02:37:56;28;22;
57289;PMS5003;43523;53.022;-1.178;2022-11-20T02:39:01;27;26;
57289;PMS5003;43523;53.022;-1.178;2022-11-20T02:40:05;26;22;
57289;PMS5003;43523;53.022;-1.178;2022-11-20T02:41:08;33;23;
57289;PMS5003;43523;53.022;-1.178;2022-11-20T02:42:10;26;22;
57289;PMS5003;43523;53.022;-1.178;2022-11-20T02:43:13;29;25;
57289;PMS5003;43523;53.022;-1.178;2022-11-20T02:44:17;28;25;
57289;PMS5003;43523;53.022;-1.178;2022-11-20T02:45:20;29;24;
57289;PMS5003;43523;53.022;-1.178;2022-11-20T02:46:23;23;17;
57289;PMS5003;43523;53.022;-1.178;2022-11-20T02:47:25;28;21;
57289;PMS5003;43523;53.022;-1.178;2022-11-20T02:48:27;28;21;
57289;PMS5003;43523;53.022;-1.178;2022-11-20T02:49:31;27;21;
57289;PMS5003;43523;53.022;-1.178;2022-11-20T02:50:33;23;20;
57289;PMS5003;43523;53.022;-1.178;2022-11-20T02:51:38;22;18;
57289;PMS5003;43523;53.022;-1.178;2022-11-20T02:52:40;25;21;
57289;PMS5003;43523;53.022;-1.178;2022-11-20T02:53:42;22;18;
57289;PMS5003;43523;53.022;-1.178;2022-11-20T02:54:44;21;19;
57289;PMS5003;43523;53.022;-1.178;2022-11-20T02:55:47;27;21;
57289;PMS5003;43523;53.022;-1.178;2022-11-20T02:56:49;22;20;
57289;PMS5003;43523;53.022;-1.178;2022-11-20T02:57:52;25;21;
57289;PMS5003;43523;53.022;-1.178;2022-11-20T02:58:54;23;22;
57289;PMS5003;43523;53.022;-1.178;2022-11-20T02:59:57;25;17;
57289;PMS5003;43523;53.022;-1.178;2022-11-20T03:00:59;17;17;
57289;PMS5003;43523;53.022;-1.178;2022-11-20T03:02:01;20;18;
57289;PMS5003;43523;53.022;-1.178;2022-11-20T03:03:04;19;17;
57289;PMS5003;43523;53.022;-1.178;2022-11-20T03:04:06;18;18;
57289;PMS5003;43523;53.022;-1.178;2022-11-20T03:05:08;23;19;
57289;PMS5003;43523;53.022;-1.178;2022-11-20T03:06:10;18;17;
57289;PMS5003;43523;53.022;-1.178;2022-11-20T03:07:13;22;19;
57289;PMS5003;43523;53.022;-1.178;2022-11-20T03:08:15;21;16;
57289;PMS5003;43523;53.022;-1.178;2022-11-20T03:09:18;21;17;
57289;PMS5003;43523;53.022;-1.178;2022-11-20T03:10:20;22;19;
57289;PMS5003;43523;53.022;-1.178;2022-11-20T03:11:23;16;15;
57289;PMS5003;43523;53.022;-1.178;2022-11-20T03:12:25;15;14;
57289;PMS5003;43523;53.022;-1.178;2022-11-20T03:13:27;19;14;
57289;PMS5003;43523;53.022;-1.178;2022-11-20T03:14:30;15;15;
57289;PMS5003;43523;53.022;-1.178;2022-11-20T03:15:33;21;14;
57289;PMS5003;43523;53.022;-1.178;2022-11-20T03:16:37;19;15;
57289;PMS5003;43523;53.022;-1.178;2022-11-20T03:17:39;19;15;
57289;PMS5003;43523;53.022;-1.178;2022-11-20T03:18:41;21;17;
57289;PMS5003;43523;53.022;-1.178;2022-11-20T03:19:45;18;17;
57289;PMS5003;43523;53.022;-1.178;2022-11-20T03:20:47;21;20;
57289;PMS5003;43523;53.022;-1.178;2022-11-20T03:21:50;16;14;
57289;PMS5003;43523;53.022;-1.178;2022-11-20T03:22:53;12;11;
57289;PMS5003;43523;53.022;-1.178;2022-11-20T03:23:55;14;11;
57289;PMS5003;43523;53.022;-1.178;2022-11-20T03:24:58;13;13;
57289;PMS5003;43523;53.022;-1.178;2022-11-20T03:26:08;15;15;
57289;PMS5003;43523;53.022;-1.178;2022-11-20T03:27:12;22;16;
57289;PMS5003;43523;53.022;-1.178;2022-11-20T03:28:14;18;14;
57289;PMS5003;43523;53.022;-1.178;2022-11-20T03:29:17;16;14;
57289;PMS5003;43523;53.022;-1.178;2022-11-20T03:30:19;16;13;
57289;PMS5003;43523;53.022;-1.178;2022-11-20T03:31:22;20;16;
57289;PMS5003;43523;53.022;-1.178;2022-11-20T03:32:26;14;11;
57289;PMS5003;43523;53.022;-1.178;2022-11-20T03:33:28;21;18;
57289;PMS5003;43523;53.022;-1.178;2022-11-20T03:34:30;22;16;
57289;PMS5003;43523;53.022;-1.178;2022-11-20T03:35:33;17;11;
57289;PMS5003;43523;53.022;-1.178;2022-11-20T03:36:37;15;11;
57289;PMS5003;43523;53.022;-1.178;2022-11-20T03:37:39;19;15;
57289;PMS5003;43523;53.022;-1.178;2022-11-20T03:38:42;22;17;
57289;PMS5003;43523;53.022;-1.178;2022-11-20T03:39:44;10;10;
57289;PMS5003;43523;53.022;-1.178;2022-11-20T03:40:47;23;16;
57289;PMS5003;43523;53.022;-1.178;2022-11-20T03:41:49;14;13;
57289;PMS5003;43523;53.022;-1.178;2022-11-20T03:42:51;18;16;
57289;PMS5003;43523;53.022;-1.178;2022-11-20T03:43:55;17;12;
57289;PMS5003;43523;53.022;-1.178;2022-11-20T03:44:59;14;13;
57289;PMS5003;43523;53.022;-1.178;2022-11-20T03:46:01;10;10;
57289;PMS5003;43523;53.022;-1.178;2022-11-20T03:47:05;17;15;
57289;PMS5003;43523;53.022;-1.178;2022-11-20T03:48:07;16;13;
57289;PMS5003;43523;53.022;-1.178;2022-11-20T03:49:10;15;12;
57289;PMS5003;43523;53.022;-1.178;2022-11-20T03:50:17;15;11;
57289;PMS5003;43523;53.022;-1.178;2022-11-20T03:51:21;14;11;
57289;PMS5003;43523;53.022;-1.178;2022-11-20T03:52:25;14;10;
57289;PMS5003;43523;53.022;-1.178;2022-11-20T03:53:28;16;9;
57289;PMS5003;43523;53.022;-1.178;2022-11-20T03:54:30;15;12;
57289;PMS5003;43523;53.022;-1.178;2022-11-20T03:55:33;12;12;
57289;PMS5003;43523;53.022;-1.178;2022-11-20T03:56:37;15;13;
57289;PMS5003;43523;53.022;-1.178;2022-11-20T03:57:40;14;10;
57289;PMS5003;43523;53.022;-1.178;2022-11-20T03:58:43;12;10;
57289;PMS5003;43523;53.022;-1.178;2022-11-20T03:59:45;10;9;
57289;PMS5003;43523;53.022;-1.178;2022-11-20T04:00:48;17;15;
57289;PMS5003;43523;53.022;-1.178;2022-11-20T04:01:50;10;10;
57289;PMS5003;43523;53.022;-1.178;2022-11-20T04:02:53;11;10;
57289;PMS5003;43523;53.022;-1.178;2022-11-20T04:03:59;11;9;
57289;PMS5003;43523;53.022;-1.178;2022-11-20T04:05:01;13;12;
57289;PMS5003;43523;53.022;-1.178;2022-11-20T04:06:05;16;8;
57289;PMS5003;43523;53.022;-1.178;2022-11-20T04:07:09;12;9;
57289;PMS5003;43523;53.022;-1.178;2022-11-20T04:08:12;13;10;
57289;PMS5003;43523;53.022;-1.178;2022-11-20T04:09:14;16;16;
57289;PMS5003;43523;53.022;-1.178;2022-11-20T04:10:17;19;13;
57289;PMS5003;43523;53.022;-1.178;2022-11-20T04:11:20;13;12;
57289;PMS5003;43523;53.022;-1.178;2022-11-20T04:12:24;13;10;
57289;PMS5003;43523;53.022;-1.178;2022-11-20T04:13:26;12;9;
57289;PMS5003;43523;53.022;-1.178;2022-11-20T04:14:29;11;9;
57289;PMS5003;43523;53.022;-1.178;2022-11-20T04:15:31;11;11;
57289;PMS5003;43523;53.022;-1.178;2022-11-20T04:16:35;14;11;
57289;PMS5003;43523;53.022;-1.178;2022-11-20T04:17:38;10;10;
57289;PMS5003;43523;53.022;-1.178;2022-11-20T04:18:40;10;9;
57289;PMS5003;43523;53.022;-1.178;2022-11-20T04:19:43;9;9;
57289;PMS5003;43523;53.022;-1.178;2022-11-20T04:20:46;10;10;
57289;PMS5003;43523;53.022;-1.178;2022-11-20T04:21:48;16;11;
57289;PMS5003;43523;53.022;-1.178;2022-11-20T04:22:52;16;12;
57289;PMS5003;43523;53.022;-1.178;2022-11-20T04:23:55;11;8;
57289;PMS5003;43523;53.022;-1.178;2022-11-20T04:24:58;13;11;
57289;PMS5003;43523;53.022;-1.178;2022-11-20T04:26:02;9;9;
57289;PMS5003;43523;53.022;-1.178;2022-11-20T04:27:05;11;9;
57289;PMS5003;43523;53.022;-1.178;2022-11-20T04:28:08;12;9;
57289;PMS5003;43523;53.022;-1.178;2022-11-20T04:29:10;9;9;
57289;PMS5003;43523;53.022;-1.178;2022-11-20T04:30:13;11;10;
57289;PMS5003;43523;53.022;-1.178;2022-11-20T04:31:16;16;11;
57289;PMS5003;43523;53.022;-1.178;2022-11-20T04:32:20;14;11;
57289;PMS5003;43523;53.022;-1.178;2022-11-20T04:33:22;11;11;
57289;PMS5003;43523;53.022;-1.178;2022-11-20T04:34:24;9;8;
57289;PMS5003;43523;53.022;-1.178;2022-11-20T04:35:27;15;10;
57289;PMS5003;43523;53.022;-1.178;2022-11-20T04:36:30;12;11;
57289;PMS5003;43523;53.022;-1.178;2022-11-20T04:37:33;11;8;
57289;PMS5003;43523;53.022;-1.178;2022-11-20T04:38:36;13;10;
57289;PMS5003;43523;53.022;-1.178;2022-11-20T04:39:38;13;10;
57289;PMS5003;43523;53.022;-1.178;2022-11-20T04:40:41;10;8;
57289;PMS5003;43523;53.022;-1.178;2022-11-20T04:41:43;14;11;
57289;PMS5003;43523;53.022;-1.178;2022-11-20T04:42:46;14;11;
57289;PMS5003;43523;53.022;-1.178;2022-11-20T04:43:49;13;11;
57289;PMS5003;43523;53.022;-1.178;2022-11-20T04:44:52;13;12;
57289;PMS5003;43523;53.022;-1.178;2022-11-20T04:45:55;13;12;
57289;PMS5003;43523;53.022;-1.178;2022-11-20T04:46:59;13;10;
57289;PMS5003;43523;53.022;-1.178;2022-11-20T04:48:01;10;9;
57289;PMS5003;43523;53.022;-1.178;2022-11-20T04:49:04;11;10;
57289;PMS5003;43523;53.022;-1.178;2022-11-20T04:50:06;14;10;
57289;PMS5003;43523;53.022;-1.178;2022-11-20T04:51:10;14;11;
57289;PMS5003;43523;53.022;-1.178;2022-11-20T04:52:12;18;16;
57289;PMS5003;43523;53.022;-1.178;2022-11-20T04:53:15;15;8;
57289;PMS5003;43523;53.022;-1.178;2022-11-20T04:54:17;10;8;
57289;PMS5003;43523;53.022;-1.178;2022-11-20T04:55:19;15;12;
57289;PMS5003;43523;53.022;-1.178;2022-11-20T04:56:21;12;10;
57289;PMS5003;43523;53.022;-1.178;2022-11-20T04:57:24;14;12;
57289;PMS5003;43523;53.022;-1.178;2022-11-20T04:58:27;10;10;
57289;PMS5003;43523;53.022;-1.178;2022-11-20T04:59:29;14;10;
57289;PMS5003;43523;53.022;-1.178;2022-11-20T05:00:32;12;10;
57289;PMS5003;43523;53.022;-1.178;2022-11-20T05:01:34;14;11;
57289;PMS5003;43523;53.022;-1.178;2022-11-20T05:02:37;8;8;
57289;PMS5003;43523;53.022;-1.178;2022-11-20T05:03:40;18;11;
57289;PMS5003;43523;53.022;-1.178;2022-11-20T05:04:44;11;9;
57289;PMS5003;43523;53.022;-1.178;2022-11-20T05:05:47;9;9;
57289;PMS5003;43523;53.022;-1.178;2022-11-20T05:06:49;13;9;
57289;PMS5003;43523;53.022;-1.178;2022-11-20T05:07:52;9;9;
57289;PMS5003;43523;53.022;-1.178;2022-11-20T05:08:54;7;7;
57289;PMS5003;43523;53.022;-1.178;2022-11-20T05:09:56;12;7;
57289;PMS5003;43523;53.022;-1.178;2022-11-20T05:11:00;10;8;
57289;PMS5003;43523;53.022;-1.178;2022-11-20T05:12:04;8;8;
57289;PMS5003;43523;53.022;-1.178;2022-11-20T05:13:09;8;8;
57289;PMS5003;43523;53.022;-1.178;2022-11-20T05:14:11;10;9;
57289;PMS5003;43523;53.022;-1.178;2022-11-20T05:15:14;9;9;
57289;PMS5003;43523;53.022;-1.178;2022-11-20T05:16:17;7;7;
57289;PMS5003;43523;53.022;-1.178;2022-11-20T05:17:20;8;8;
57289;PMS5003;43523;53.022;-1.178;2022-11-20T05:18:23;8;7;
57289;PMS5003;43523;53.022;-1.178;2022-11-20T05:19:25;9;7;
57289;PMS5003;43523;53.022;-1.178;2022-11-20T05:20:28;10;7;
57289;PMS5003;43523;53.022;-1.178;2022-11-20T05:21:30;10;7;
57289;PMS5003;43523;53.022;-1.178;2022-11-20T05:22:33;10;8;
57289;PMS5003;43523;53.022;-1.178;2022-11-20T05:23:36;9;7;
57289;PMS5003;43523;53.022;-1.178;2022-11-20T05:24:39;11;10;
57289;PMS5003;43523;53.022;-1.178;2022-11-20T05:25:42;8;7;
57289;PMS5003;43523;53.022;-1.178;2022-11-20T05:26:44;9;6;
57289;PMS5003;43523;53.022;-1.178;2022-11-20T05:27:47;9;6;
57289;PMS5003;43523;53.022;-1.178;2022-11-20T05:28:49;6;6;
57289;PMS5003;43523;53.022;-1.178;2022-11-20T05:29:52;7;5;
57289;PMS5003;43523;53.022;-1.178;2022-11-20T05:30:55;11;8;
57289;PMS5003;43523;53.022;-1.178;2022-11-20T05:31:57;5;5;
57289;PMS5003;43523;53.022;-1.178;2022-11-20T05:33:00;7;6;
57289;PMS5003;43523;53.022;-1.178;2022-11-20T05:34:02;4;4;
57289;PMS5003;43523;53.022;-1.178;2022-11-20T05:35:05;6;6;
57289;PMS5003;43523;53.022;-1.178;2022-11-20T05:36:09;12;7;
57289;PMS5003;43523;53.022;-1.178;2022-11-20T05:37:13;7;7;
57289;PMS5003;43523;53.022;-1.178;2022-11-20T05:38:15;8;7;
57289;PMS5003;43523;53.022;-1.178;2022-11-20T05:39:18;8;8;
57289;PMS5003;43523;53.022;-1.178;2022-11-20T05:40:20;11;7;
57289;PMS5003;43523;53.022;-1.178;2022-11-20T05:41:22;7;7;
57289;PMS5003;43523;53.022;-1.178;2022-11-20T05:42:24;10;7;
57289;PMS5003;43523;53.022;-1.178;2022-11-20T05:43:27;10;7;
57289;PMS5003;43523;53.022;-1.178;2022-11-20T05:44:29;9;9;
57289;PMS5003;43523;53.022;-1.178;2022-11-20T05:45:32;8;7;
57289;PMS5003;43523;53.022;-1.178;2022-11-20T05:46:34;7;7;
57289;PMS5003;43523;53.022;-1.178;2022-11-20T05:47:38;11;9;
57289;PMS5003;43523;53.022;-1.178;2022-11-20T05:48:41;11;9;
57289;PMS5003;43523;53.022;-1.178;2022-11-20T05:49:44;9;9;
57289;PMS5003;43523;53.022;-1.178;2022-11-20T05:50:47;8;8;
57289;PMS5003;43523;53.022;-1.178;2022-11-20T05:51:49;8;8;
57289;PMS5003;43523;53.022;-1.178;2022-11-20T05:52:52;15;10;
57289;PMS5003;43523;53.022;-1.178;2022-11-20T05:53:55;7;7;
57289;PMS5003;43523;53.022;-1.178;2022-11-20T05:54:58;8;8;
57289;PMS5003;43523;53.022;-1.178;2022-11-20T05:56:00;7;6;
57289;PMS5003;43523;53.022;-1.178;2022-11-20T05:57:04;9;9;
57289;PMS5003;43523;53.022;-1.178;2022-11-20T05:58:07;12;10;
57289;PMS5003;43523;53.022;-1.178;2022-11-20T05:59:09;11;8;
57289;PMS5003;43523;53.022;-1.178;2022-11-20T06:00:12;9;6;
57289;PMS5003;43523;53.022;-1.178;2022-11-20T06:01:17;13;9;
57289;PMS5003;43523;53.022;-1.178;2022-11-20T06:02:21;10;8;
57289;PMS5003;43523;53.022;-1.178;2022-11-20T06:03:23;11;10;
57289;PMS5003;43523;53.022;-1.178;2022-11-20T06:04:25;10;9;
57289;PMS5003;43523;53.022;-1.178;2022-11-20T06:05:28;11;7;
57289;PMS5003;43523;53.022;-1.178;2022-11-20T06:06:31;8;8;
57289;PMS5003;43523;53.022;-1.178;2022-11-20T06:07:33;12;11;
57289;PMS5003;43523;53.022;-1.178;2022-11-20T06:08:36;12;9;
57289;PMS5003;43523;53.022;-1.178;2022-11-20T06:09:39;16;14;
57289;PMS5003;43523;53.022;-1.178;2022-11-20T06:10:41;13;11;
57289;PMS5003;43523;53.022;-1.178;2022-11-20T06:11:43;11;10;
57289;PMS5003;43523;53.022;-1.178;2022-11-20T06:12:46;16;12;
57289;PMS5003;43523;53.022;-1.178;2022-11-20T06:13:48;12;11;
57289;PMS5003;43523;53.022;-1.178;2022-11-20T06:14:50;8;8;
57289;PMS5003;43523;53.022;-1.178;2022-11-20T06:15:53;10;10;
57289;PMS5003;43523;53.022;-1.178;2022-11-20T06:16:55;13;11;
57289;PMS5003;43523;53.022;-1.178;2022-11-20T06:17:58;12;12;
57289;PMS5003;43523;53.022;-1.178;2022-11-20T06:19:00;13;11;
57289;PMS5003;43523;53.022;-1.178;2022-11-20T06:20:03;11;11;
57289;PMS5003;43523;53.022;-1.178;2022-11-20T06:21:07;12;12;
57289;PMS5003;43523;53.022;-1.178;2022-11-20T06:22:11;14;14;
57289;PMS5003;43523;53.022;-1.178;2022-11-20T06:23:13;13;13;
57289;PMS5003;43523;53.022;-1.178;2022-11-20T06:24:16;9;9;
57289;PMS5003;43523;53.022;-1.178;2022-11-20T06:25:18;9;9;
57289;PMS5003;43523;53.022;-1.178;2022-11-20T06:26:22;13;12;
57289;PMS5003;43523;53.022;-1.178;2022-11-20T06:27:25;16;11;
57289;PMS5003;43523;53.022;-1.178;2022-11-20T06:28:28;16;14;
57289;PMS5003;43523;53.022;-1.178;2022-11-20T06:29:30;17;11;
57289;PMS5003;43523;53.022;-1.178;2022-11-20T06:30:33;12;10;
57289;PMS5003;43523;53.022;-1.178;2022-11-20T06:31:36;12;11;
57289;PMS5003;43523;53.022;-1.178;2022-11-20T06:32:38;12;12;
57289;PMS5003;43523;53.022;-1.178;2022-11-20T06:33:41;14;11;
57289;PMS5003;43523;53.022;-1.178;2022-11-20T06:34:44;13;12;
57289;PMS5003;43523;53.022;-1.178;2022-11-20T06:35:47;14;13;
57289;PMS5003;43523;53.022;-1.178;2022-11-20T06:36:49;13;13;
57289;PMS5003;43523;53.022;-1.178;2022-11-20T06:37:52;12;11;
57289;PMS5003;43523;53.022;-1.178;2022-11-20T06:38:54;16;13;
57289;PMS5003;43523;53.022;-1.178;2022-11-20T06:39:57;16;12;
57289;PMS5003;43523;53.022;-1.178;2022-11-20T06:40:59;13;12;
57289;PMS5003;43523;53.022;-1.178;2022-11-20T06:42:01;15;13;
57289;PMS5003;43523;53.022;-1.178;2022-11-20T06:43:04;13;13;
57289;PMS5003;43523;53.022;-1.178;2022-11-20T06:44:06;16;15;
57289;PMS5003;43523;53.022;-1.178;2022-11-20T06:45:09;13;10;
57289;PMS5003;43523;53.022;-1.178;2022-11-20T06:46:11;13;11;
57289;PMS5003;43523;53.022;-1.178;2022-11-20T06:47:15;14;14;
57289;PMS5003;43523;53.022;-1.178;2022-11-20T06:48:18;10;10;
57289;PMS5003;43523;53.022;-1.178;2022-11-20T06:49:20;12;12;
57289;PMS5003;43523;53.022;-1.178;2022-11-20T06:50:23;15;15;
57289;PMS5003;43523;53.022;-1.178;2022-11-20T06:51:25;13;13;
57289;PMS5003;43523;53.022;-1.178;2022-11-20T06:52:27;12;10;
57289;PMS5003;43523;53.022;-1.178;2022-11-20T06:53:30;17;14;
57289;PMS5003;43523;53.022;-1.178;2022-11-20T06:54:32;13;13;